createdAt,value
2019-05-02T00:02:03.406Z,10.50
2019-05-02T00:04:29.963Z,10.25
2019-05-02T00:07:07.173Z,10.10
2019-05-02T00:09:34.851Z,10.13
2019-05-02T00:12:01.752Z,10.15
2019-05-02T00:14:28.130Z,12.05
2019-05-02T00:16:54.482Z,10.55
2019-05-02T00:19:20.780Z,9.93
2019-05-02T00:21:47.264Z,9.50
2019-05-02T00:24:13.554Z,11.95
2019-05-02T00:26:39.899Z,13.55
2019-05-02T00:29:06.674Z,12.28
2019-05-02T00:31:33.072Z,12.90
2019-05-02T00:33:59.337Z,12.50
2019-05-02T00:36:25.723Z,14.65
2019-05-02T00:38:52.125Z,11.85
2019-05-02T00:41:18.386Z,11.28
2019-05-02T00:43:44.760Z,13.83
2019-05-02T00:46:11.263Z,14.90
2019-05-02T00:48:39.529Z,13.83
2019-05-02T00:51:05.882Z,14.07
2019-05-02T00:53:32.286Z,17.37
2019-05-02T00:55:58.563Z,13.98
2019-05-02T00:58:27.192Z,19.05
2019-05-02T01:01:07.248Z,17.05
2019-05-02T01:03:35.438Z,20.88
2019-05-02T01:06:01.840Z,17.67
2019-05-02T01:08:30.965Z,18.20
2019-05-02T01:10:56.885Z,16.40
2019-05-02T01:13:24.274Z,18.55
2019-05-02T01:15:50.530Z,20.20
2019-05-02T01:18:16.932Z,21.57
2019-05-02T01:20:43.183Z,21.95
2019-05-02T01:23:09.557Z,23.10
2019-05-02T01:25:35.838Z,19.45
2019-05-02T01:28:17.652Z,26.02
2019-05-02T01:30:49.586Z,25.45
2019-05-02T01:33:23.753Z,27.42
2019-05-02T01:35:52.472Z,20.12
2019-05-02T01:38:26.386Z,25.23
2019-05-02T01:40:54.550Z,26.27
2019-05-02T01:43:25.644Z,27.35
2019-05-02T01:45:52.138Z,28.90
2019-05-02T01:48:19.252Z,28.27
2019-05-02T01:50:45.600Z,25.82
2019-05-02T01:53:12.922Z,24.95
2019-05-02T01:55:39.284Z,28.55
2019-05-02T01:58:05.721Z,28.32
2019-05-02T02:00:32.085Z,27.80
2019-05-02T02:02:58.474Z,25.08
2019-05-02T02:05:27.609Z,27.87
2019-05-02T02:07:55.576Z,25.70
2019-05-02T02:10:21.593Z,30.25
2019-05-02T02:13:02.943Z,28.07
2019-05-02T02:15:16.028Z,30.02
2019-05-02T02:17:46.856Z,30.70
2019-05-02T02:20:15.639Z,32.15
2019-05-02T02:22:44.092Z,33.18
2019-05-02T02:25:24.966Z,31.23
2019-05-02T02:27:54.998Z,31.73
2019-05-02T02:30:24.437Z,30.60
2019-05-02T02:32:47.558Z,29.15
2019-05-02T02:35:13.928Z,28.87
2019-05-02T02:37:51.925Z,28.85
2019-05-02T02:40:08.829Z,30.20
2019-05-02T02:42:35.262Z,29.27
2019-05-02T02:45:04.944Z,29.70
2019-05-02T02:47:31.240Z,31.97
2019-05-02T02:50:02.684Z,34.08
2019-05-02T02:52:25.718Z,35.98
2019-05-02T02:54:52.042Z,39.00
2019-05-02T02:57:25.915Z,31.87
2019-05-02T02:59:46.483Z,30.35
2019-05-02T03:02:12.715Z,33.48
2019-05-02T03:04:44.126Z,30.35
2019-05-02T03:07:07.515Z,35.50
2019-05-02T03:09:33.981Z,32.00
2019-05-02T03:12:08.151Z,30.23
2019-05-02T03:14:41.010Z,33.63
2019-05-02T03:17:04.791Z,32.80
2019-05-02T03:19:31.295Z,29.32
2019-05-02T03:22:03.453Z,32.73
2019-05-02T03:24:46.810Z,35.48
2019-05-02T03:27:13.512Z,39.60
2019-05-02T03:29:43.872Z,33.38
2019-05-02T03:32:30.527Z,40.48
2019-05-02T03:34:47.739Z,39.27
2019-05-02T03:37:10.593Z,37.88
2019-05-02T03:39:32.764Z,35.23
2019-05-02T03:42:03.145Z,40.12
2019-05-02T03:44:27.254Z,35.78
2019-05-02T03:47:01.299Z,41.83
2019-05-02T03:49:22.141Z,40.90
2019-05-02T03:51:48.620Z,37.60
2019-05-02T03:54:15.095Z,39.33
2019-05-02T03:56:44.850Z,49.20
2019-05-02T03:59:09.660Z,41.42
2019-05-02T04:01:41.388Z,43.35
2019-05-02T04:04:04.428Z,45.63
2019-05-02T04:06:30.945Z,44.53
2019-05-02T04:08:59.872Z,46.60
2019-05-02T04:11:25.899Z,41.53
2019-05-02T04:13:54.236Z,37.90
2019-05-02T04:16:29.117Z,46.05
2019-05-02T04:18:58.198Z,40.95
2019-05-02T04:21:26.281Z,38.33
2019-05-02T04:23:52.610Z,41.77
2019-05-02T04:26:19.274Z,43.30
2019-05-02T04:28:51.742Z,42.17
2019-05-02T04:31:13.822Z,41.18
2019-05-02T04:33:40.455Z,41.88
2019-05-02T04:36:13.755Z,41.23
2019-05-02T04:38:44.414Z,46.28
2019-05-02T04:41:03.798Z,38.35
2019-05-02T04:43:30.167Z,41.40
2019-05-02T04:45:59.901Z,41.55
2019-05-02T04:48:24.608Z,36.73
2019-05-02T04:50:51.769Z,40.03
2019-05-02T04:53:18.930Z,44.53
2019-05-02T04:55:52.082Z,38.53
2019-05-02T04:58:24.202Z,41.37
2019-05-02T05:00:45.095Z,38.83
2019-05-02T05:03:15.633Z,40.30
2019-05-02T05:05:59.396Z,42.85
2019-05-02T05:08:31.259Z,41.63
2019-05-02T05:10:54.104Z,39.67
2019-05-02T05:13:23.276Z,40.83
2019-05-02T05:15:51.627Z,40.08
2019-05-02T05:18:17.698Z,38.48
2019-05-02T05:20:46.056Z,39.05
2019-05-02T05:23:15.749Z,36.42
2019-05-02T05:25:44.211Z,36.83
2019-05-02T05:28:10.571Z,39.67
2019-05-02T05:30:44.705Z,40.30
2019-05-02T05:33:05.041Z,39.63
2019-05-02T05:35:31.357Z,40.30
2019-05-02T05:37:57.614Z,37.58
2019-05-02T05:40:28.221Z,38.45
2019-05-02T05:42:52.666Z,43.08
2019-05-02T05:45:19.049Z,44.77
2019-05-02T05:47:45.376Z,38.75
2019-05-02T05:50:12.153Z,41.88
2019-05-02T05:52:42.267Z,38.35
2019-05-02T05:55:07.892Z,34.78
2019-05-02T05:57:34.568Z,32.58
2019-05-02T06:00:03.835Z,39.98
2019-05-02T06:02:29.106Z,33.53
2019-05-02T06:05:01.993Z,35.68
2019-05-02T06:07:23.617Z,38.05
2019-05-02T06:09:49.957Z,30.95
2019-05-02T06:12:16.314Z,37.88
2019-05-02T06:14:42.726Z,36.88
2019-05-02T06:17:09.050Z,35.38
2019-05-02T06:19:35.530Z,37.67
2019-05-02T06:22:01.841Z,34.43
2019-05-02T06:24:28.175Z,34.83
2019-05-02T06:26:54.513Z,36.15
2019-05-02T06:29:21.023Z,33.10
2019-05-02T06:31:47.311Z,31.65
2019-05-02T06:34:13.867Z,31.37
2019-05-02T06:36:40.201Z,31.60
2019-05-02T06:39:06.560Z,31.05
2019-05-02T06:41:32.865Z,31.20
2019-05-02T06:43:59.116Z,32.48
2019-05-02T06:46:27.713Z,30.72
2019-05-02T06:48:53.808Z,30.68
2019-05-02T06:51:21.104Z,31.93
2019-05-02T06:53:48.992Z,32.53
2019-05-02T06:56:15.553Z,30.45
2019-05-02T06:58:43.348Z,30.35
2019-05-02T07:01:10.013Z,33.20
2019-05-02T07:03:36.317Z,30.05
2019-05-02T07:06:04.540Z,29.75
2019-05-02T07:08:31.658Z,32.63
2019-05-02T07:11:01.468Z,32.25
2019-05-02T07:13:26.621Z,29.55
2019-05-02T07:16:03.940Z,31.65
2019-05-02T07:18:35.274Z,27.82
2019-05-02T07:21:02.204Z,29.30
2019-05-02T07:23:28.743Z,28.80
2019-05-02T07:25:55.097Z,29.95
2019-05-02T07:28:23.803Z,31.75
2019-05-02T07:30:49.659Z,30.05
2019-05-02T07:33:16.032Z,31.77
2019-05-02T07:35:42.268Z,34.00
2019-05-02T07:38:09.362Z,33.73
2019-05-02T07:40:35.852Z,33.95
2019-05-02T07:43:02.326Z,34.55
2019-05-02T07:45:28.833Z,33.95
2019-05-02T07:47:55.558Z,32.55
2019-05-02T07:50:21.946Z,31.62
2019-05-02T07:52:48.326Z,32.67
2019-05-02T07:55:18.688Z,31.75
2019-05-02T07:57:45.077Z,28.00
2019-05-02T08:00:13.424Z,31.15
2019-05-02T08:02:39.795Z,35.33
2019-05-02T08:05:08.859Z,32.20
2019-05-02T08:07:34.624Z,33.25
2019-05-02T08:10:01.202Z,34.88
2019-05-02T08:12:27.546Z,34.13
2019-05-02T08:14:53.862Z,30.82
2019-05-02T08:17:20.217Z,34.70
2019-05-02T08:19:46.609Z,37.03
2019-05-02T08:22:14.538Z,33.80
2019-05-02T08:24:41.387Z,35.48
2019-05-02T08:27:23.163Z,36.55
2019-05-02T08:29:50.540Z,35.80
2019-05-02T08:32:16.897Z,33.90
2019-05-02T08:34:46.036Z,35.23
2019-05-02T08:37:11.375Z,31.00
2019-05-02T08:39:37.805Z,32.30
2019-05-02T08:42:04.273Z,37.83
2019-05-02T08:44:30.603Z,37.58
2019-05-02T08:46:56.930Z,38.67
2019-05-02T08:49:23.467Z,42.73
2019-05-02T08:51:49.996Z,43.13
2019-05-02T08:54:16.564Z,37.40
2019-05-02T08:56:43.373Z,36.28
2019-05-02T08:59:09.629Z,40.63
2019-05-02T09:01:35.995Z,38.30
2019-05-02T09:04:02.753Z,39.30
2019-05-02T09:06:29.154Z,35.70
2019-05-02T09:08:55.533Z,36.55
2019-05-02T09:11:21.824Z,31.27
2019-05-02T09:13:48.256Z,33.75
2019-05-02T09:16:14.601Z,39.15
2019-05-02T09:18:50.409Z,30.80
2019-05-02T09:21:09.151Z,36.40
2019-05-02T09:23:37.220Z,34.10
2019-05-02T09:26:03.856Z,35.55
2019-05-02T09:28:31.971Z,37.05
2019-05-02T09:31:05.056Z,36.45
2019-05-02T09:33:26.232Z,32.30
2019-05-02T09:35:52.608Z,27.40
2019-05-02T09:38:18.943Z,30.70
2019-05-02T09:40:47.341Z,31.17
2019-05-02T09:43:13.424Z,29.82
2019-05-02T09:45:41.805Z,27.58
2019-05-02T09:48:08.344Z,28.05
2019-05-02T09:50:37.906Z,22.98
2019-05-02T09:53:03.315Z,22.22
2019-05-02T09:55:31.759Z,23.35
2019-05-02T09:57:58.435Z,24.90
2019-05-02T10:00:44.835Z,24.37
2019-05-02T10:03:12.058Z,26.00
2019-05-02T10:05:38.487Z,24.27
2019-05-02T10:08:06.803Z,23.12
2019-05-02T10:10:37.152Z,26.30
2019-05-02T10:13:02.763Z,27.37
2019-05-02T10:15:29.642Z,22.20
2019-05-02T10:18:07.891Z,27.93
2019-05-02T10:20:34.142Z,26.02
2019-05-02T10:22:53.082Z,28.92
2019-05-02T10:25:19.488Z,24.65
2019-05-02T10:27:47.533Z,24.37
2019-05-02T10:30:15.677Z,29.55
2019-05-02T10:32:42.791Z,29.32
2019-05-02T10:35:12.921Z,27.60
2019-05-02T10:37:39.772Z,24.37
2019-05-02T10:40:07.936Z,24.10
2019-05-02T10:42:34.878Z,21.93
2019-05-02T10:45:02.760Z,26.42
2019-05-02T10:47:29.223Z,25.65
2019-05-02T10:49:57.512Z,26.30
2019-05-02T10:52:29.652Z,27.00
2019-05-02T10:54:52.872Z,26.25
2019-05-02T10:57:19.410Z,30.37
2019-05-02T10:59:45.820Z,29.30
2019-05-02T11:02:22.878Z,29.67
2019-05-02T11:04:52.479Z,29.05
2019-05-02T11:07:22.571Z,31.20
2019-05-02T11:09:47.103Z,25.75
2019-05-02T11:12:16.482Z,27.32
2019-05-02T11:14:51.904Z,25.55
2019-05-02T11:17:23.000Z,28.67
2019-05-02T11:19:53.983Z,27.77
2019-05-02T11:22:20.339Z,29.85
2019-05-02T11:24:46.792Z,30.37
2019-05-02T11:27:13.240Z,26.35
2019-05-02T11:29:39.577Z,30.68
2019-05-02T11:32:05.986Z,30.55
2019-05-02T11:34:32.735Z,34.83
2019-05-02T11:36:59.387Z,30.23
2019-05-02T11:39:33.645Z,31.75
2019-05-02T11:41:54.235Z,31.45
2019-05-02T11:44:22.394Z,35.15
2019-05-02T11:46:48.671Z,30.77
2019-05-02T11:49:15.074Z,33.48
2019-05-02T11:51:42.171Z,32.55
2019-05-02T11:54:09.468Z,30.05
2019-05-02T11:56:36.130Z,30.17
2019-05-02T11:59:03.039Z,29.25
2019-05-02T12:01:37.107Z,30.08
2019-05-02T12:03:57.819Z,28.85
2019-05-02T12:06:24.194Z,27.58
2019-05-02T12:08:52.502Z,24.87
2019-05-02T12:11:19.378Z,26.15
2019-05-02T12:13:47.240Z,26.30
2019-05-02T12:16:14.012Z,25.90
2019-05-02T12:18:41.875Z,26.95
2019-05-02T12:21:08.313Z,26.40
2019-05-02T12:23:36.176Z,24.75
2019-05-02T12:26:03.311Z,27.95
2019-05-02T12:28:29.662Z,23.73
2019-05-02T12:30:56.109Z,26.35
2019-05-02T12:33:24.494Z,22.87
2019-05-02T12:35:52.539Z,27.58
2019-05-02T12:38:19.149Z,26.70
2019-05-02T12:40:45.501Z,26.00
2019-05-02T12:43:12.180Z,27.40
2019-05-02T12:45:42.091Z,25.37
2019-05-02T12:48:08.534Z,24.82
2019-05-02T12:50:34.914Z,26.73
2019-05-02T12:53:02.953Z,23.57
2019-05-02T12:55:29.232Z,24.63
2019-05-02T12:57:55.604Z,23.75
2019-05-02T13:00:22.394Z,28.95
2019-05-02T13:02:52.511Z,27.42
2019-05-02T13:05:19.359Z,25.00
2019-05-02T13:07:50.458Z,30.23
2019-05-02T13:10:15.850Z,25.57
2019-05-02T13:12:44.257Z,28.42
2019-05-02T13:15:12.730Z,23.87
2019-05-02T13:17:47.153Z,23.22
2019-05-02T13:20:12.293Z,21.33
2019-05-02T13:23:00.990Z,20.15
2019-05-02T13:25:32.853Z,20.43
2019-05-02T13:27:55.958Z,20.52
2019-05-02T13:30:24.458Z,22.05
2019-05-02T13:32:57.680Z,24.02
2019-05-02T13:35:31.473Z,22.52
2019-05-02T13:37:58.301Z,20.40
2019-05-02T13:40:26.676Z,21.00
2019-05-02T13:42:53.127Z,19.25
2019-05-02T13:45:24.576Z,16.95
2019-05-02T13:47:51.909Z,16.40
2019-05-02T13:50:18.489Z,15.48
2019-05-02T13:52:51.994Z,14.90
2019-05-02T13:55:15.297Z,16.32
2019-05-02T13:57:46.761Z,16.50
2019-05-02T14:00:13.582Z,13.88
2019-05-02T14:02:42.692Z,14.03
2019-05-02T14:05:14.042Z,14.65
2019-05-02T14:07:59.054Z,13.93
2019-05-02T14:10:32.236Z,13.68
2019-05-02T14:13:00.253Z,13.68
2019-05-02T14:15:28.672Z,13.08
2019-05-02T14:17:55.146Z,12.20
2019-05-02T14:20:22.494Z,11.35
2019-05-02T14:22:49.339Z,13.50
2019-05-02T14:25:15.836Z,12.10
2019-05-02T14:27:42.305Z,11.83
2019-05-02T14:30:09.363Z,11.73
2019-05-02T14:32:35.769Z,11.45
2019-05-02T14:35:04.818Z,12.35
2019-05-02T14:37:32.092Z,13.00
2019-05-02T14:40:02.224Z,11.80
2019-05-02T14:42:28.809Z,10.13
2019-05-02T14:45:11.856Z,10.03
2019-05-02T14:47:23.439Z,9.13
2019-05-02T14:49:49.727Z,12.13
2019-05-02T14:52:16.101Z,10.15
2019-05-02T14:54:47.615Z,11.80
2019-05-02T14:57:17.180Z,11.50
2019-05-02T14:59:42.856Z,13.78
2019-05-02T15:02:13.077Z,11.08
2019-05-02T15:04:44.356Z,12.78
2019-05-02T15:07:08.287Z,12.03
2019-05-02T15:09:36.310Z,12.07
2019-05-02T15:12:08.192Z,12.58
2019-05-02T15:14:33.320Z,13.08
2019-05-02T15:17:02.509Z,12.90
2019-05-02T15:19:29.566Z,11.75
2019-05-02T15:21:56.199Z,13.75
2019-05-02T15:24:23.127Z,10.40
2019-05-02T15:26:49.758Z,11.83
2019-05-02T15:29:19.736Z,14.30
2019-05-02T15:31:46.279Z,13.22
2019-05-02T15:34:16.158Z,11.35
2019-05-02T15:36:45.863Z,12.60
2019-05-02T15:41:44.748Z,13.62
2019-05-02T15:44:10.380Z,12.82
2019-05-02T15:46:36.650Z,11.55
2019-05-02T15:49:16.323Z,13.13
2019-05-02T15:51:46.031Z,12.65
2019-05-02T15:54:12.531Z,11.18
2019-05-02T15:57:00.703Z,13.62
2019-05-02T15:59:44.909Z,11.60
2019-05-02T16:02:05.705Z,11.45
2019-05-02T16:04:34.169Z,12.10
2019-05-02T16:07:04.632Z,8.53
2019-05-02T16:09:28.713Z,9.00
2019-05-02T16:11:56.914Z,5.92
2019-05-02T16:14:26.996Z,3.50
2019-05-02T16:16:52.187Z,2.50
2019-05-02T16:19:24.855Z,1.90
2019-05-02T16:21:48.724Z,3.17
2019-05-02T16:24:18.856Z,3.37
2019-05-02T16:26:46.952Z,2.67
2019-05-02T16:29:19.549Z,4.33
2019-05-02T16:31:43.713Z,3.87
2019-05-02T16:34:10.171Z,3.85
2019-05-02T16:36:37.566Z,4.75
2019-05-02T16:39:10.089Z,4.20
2019-05-02T16:41:34.686Z,3.65
2019-05-02T16:44:01.249Z,3.87
2019-05-02T16:46:28.218Z,5.62
2019-05-02T16:48:54.541Z,4.83
2019-05-02T16:51:30.783Z,3.42
2019-05-02T16:53:49.367Z,3.55
2019-05-02T16:56:15.885Z,5.25
2019-05-02T16:58:47.071Z,5.50
2019-05-02T17:01:19.747Z,4.90
2019-05-02T17:03:42.435Z,4.95
2019-05-02T17:06:08.875Z,5.05
2019-05-02T17:08:37.130Z,8.80
2019-05-02T17:11:05.535Z,7.08
2019-05-02T17:13:35.890Z,216.42
2019-05-02T17:16:06.900Z,23.12
2019-05-02T17:18:32.581Z,42.67
2019-05-02T17:20:58.984Z,32.80
2019-05-02T17:23:25.241Z,13.50
2019-05-02T17:25:52.202Z,53.33
2019-05-02T17:28:43.256Z,15.03
2019-05-02T17:31:10.719Z,7.87
2019-05-02T17:33:34.897Z,7.47
2019-05-02T17:36:02.148Z,6.60
2019-05-02T17:38:29.299Z,6.42
2019-05-02T17:40:59.239Z,7.10
2019-05-02T17:43:23.837Z,6.90
2019-05-02T17:45:50.492Z,7.55
2019-05-02T17:48:17.827Z,10.55
2019-05-02T17:50:54.342Z,8.65
2019-05-02T17:53:17.788Z,10.90
2019-05-02T17:55:44.398Z,8.33
2019-05-02T17:58:12.690Z,15.93
2019-05-02T18:00:42.888Z,8.65
2019-05-02T18:03:09.214Z,11.25
2019-05-02T18:05:35.847Z,10.10
2019-05-02T18:08:06.064Z,12.53
2019-05-02T18:10:32.279Z,8.88
2019-05-02T18:13:00.043Z,10.88
2019-05-02T18:15:29.902Z,10.35
2019-05-02T18:17:59.669Z,12.88
2019-05-02T18:20:25.309Z,9.93
2019-05-02T18:22:51.999Z,11.80
2019-05-02T18:25:23.605Z,11.93
2019-05-02T18:27:51.635Z,15.55
2019-05-02T18:30:24.926Z,9.15
2019-05-02T18:32:47.714Z,13.48
2019-05-02T18:35:14.076Z,11.57
2019-05-02T18:37:45.035Z,11.03
2019-05-02T18:40:09.328Z,10.25
2019-05-02T18:42:35.693Z,10.63
2019-05-02T18:45:05.811Z,10.43
2019-05-02T18:47:33.444Z,13.85
2019-05-02T18:50:02.126Z,10.45
2019-05-02T18:52:36.316Z,11.20
2019-05-02T18:54:56.734Z,9.55
2019-05-02T18:57:25.951Z,11.08
2019-05-02T18:59:52.051Z,9.50
2019-05-02T19:02:21.561Z,12.50
2019-05-02T19:04:48.157Z,10.95
2019-05-02T19:07:15.929Z,12.82
2019-05-02T19:09:50.811Z,13.10
2019-05-02T19:12:19.714Z,11.22
2019-05-02T19:14:39.412Z,14.55
2019-05-02T19:17:07.442Z,12.33
2019-05-02T19:19:36.789Z,12.18
2019-05-02T19:22:02.698Z,14.00
2019-05-02T19:24:34.971Z,10.30
2019-05-02T19:26:58.692Z,14.33
2019-05-02T19:29:27.087Z,11.45
2019-05-02T19:31:53.596Z,16.50
2019-05-02T19:34:22.891Z,15.30
2019-05-02T19:36:48.628Z,10.93
2019-05-02T19:39:18.353Z,11.80
2019-05-02T19:41:45.682Z,12.45
2019-05-02T19:44:15.111Z,15.65
2019-05-02T19:46:42.216Z,12.55
2019-05-02T19:49:12.436Z,11.48
2019-05-02T19:51:37.436Z,12.75
2019-05-02T19:54:06.852Z,12.30
2019-05-02T19:56:43.258Z,10.95
2019-05-02T19:59:02.680Z,10.32
2019-05-02T20:01:29.544Z,11.48
2019-05-02T20:03:56.855Z,10.63
2019-05-02T20:06:24.332Z,13.65
2019-05-02T20:08:53.970Z,12.93
2019-05-02T20:11:21.817Z,9.90
2019-05-02T20:13:48.148Z,12.18
2019-05-02T20:16:20.174Z,7.92
2019-05-02T20:18:47.270Z,13.95
2019-05-02T20:21:27.928Z,7.47
2019-05-02T20:23:53.059Z,12.03
2019-05-02T20:26:19.473Z,10.40
2019-05-02T20:28:45.947Z,9.35
2019-05-02T20:31:12.486Z,10.35
2019-05-02T20:33:39.062Z,8.05
2019-05-02T20:36:06.009Z,9.13
2019-05-02T20:38:32.556Z,10.50
2019-05-02T20:40:59.415Z,8.53
2019-05-02T20:43:25.955Z,9.05
2019-05-02T20:45:52.824Z,8.63
2019-05-02T20:48:19.318Z,12.05
2019-05-02T20:50:46.200Z,8.63
2019-05-02T20:53:14.698Z,12.37
2019-05-02T20:55:41.696Z,9.48
2019-05-02T20:58:08.437Z,9.15
2019-05-02T21:00:35.235Z,9.33
2019-05-02T21:03:02.697Z,7.25
2019-05-02T21:05:48.091Z,7.42
2019-05-02T21:08:22.174Z,7.47
2019-05-02T21:10:53.399Z,11.53
2019-05-02T21:13:21.972Z,8.70
2019-05-02T21:15:48.707Z,12.90
2019-05-02T21:18:15.178Z,8.18
2019-05-02T21:20:41.874Z,10.13
2019-05-02T21:23:08.415Z,9.65
2019-05-02T21:25:35.030Z,8.45
2019-05-02T21:28:02.812Z,9.83
2019-05-02T21:30:29.534Z,8.70
2019-05-02T21:32:56.080Z,10.48
2019-05-02T21:35:22.781Z,7.10
2019-05-02T21:37:49.298Z,9.18
2019-05-02T21:40:16.012Z,8.63
2019-05-02T21:42:42.657Z,12.68
2019-05-02T21:45:09.250Z,8.33
2019-05-02T21:47:35.818Z,8.80
2019-05-02T21:50:06.756Z,7.05
2019-05-02T21:52:38.016Z,10.58
2019-05-02T21:55:26.153Z,12.07
2019-05-02T21:57:52.600Z,10.58
2019-05-02T22:00:42.138Z,9.28
2019-05-02T22:03:09.405Z,10.85
2019-05-02T22:05:35.898Z,6.25
2019-05-02T22:08:03.045Z,10.13
2019-05-02T22:10:29.478Z,12.33
2019-05-02T22:12:55.771Z,10.15
2019-05-02T22:15:22.297Z,10.45
2019-05-02T22:17:48.747Z,10.35
2019-05-02T22:20:15.141Z,12.23
2019-05-02T22:22:42.626Z,10.78
2019-05-02T22:25:09.217Z,10.05
2019-05-02T22:27:35.569Z,10.82
2019-05-02T22:30:05.680Z,8.83
2019-05-02T22:32:32.198Z,12.05
2019-05-02T22:34:58.700Z,6.75
2019-05-02T22:37:25.803Z,11.30
2019-05-02T22:39:54.108Z,11.73
2019-05-02T22:42:21.895Z,11.78
2019-05-02T22:44:50.621Z,12.35
2019-05-02T22:47:16.906Z,7.90
2019-05-02T22:49:43.416Z,10.20
2019-05-02T22:52:09.841Z,14.55
2019-05-02T22:54:36.275Z,10.65
2019-05-02T22:57:02.791Z,17.70
2019-05-02T22:59:29.245Z,9.88
2019-05-02T23:01:56.611Z,13.58
2019-05-02T23:04:23.582Z,10.43
2019-05-02T23:06:52.970Z,12.47
2019-05-02T23:09:19.538Z,11.20
2019-05-02T23:11:46.053Z,12.80
2019-05-02T23:14:12.773Z,12.23
2019-05-02T23:16:39.268Z,8.20
2019-05-02T23:19:05.633Z,10.38
2019-05-02T23:21:32.521Z,8.90
2019-05-02T23:24:01.692Z,11.03
2019-05-02T23:26:42.227Z,11.10
2019-05-02T23:29:13.569Z,11.43
2019-05-02T23:31:39.879Z,10.75
2019-05-02T23:34:06.232Z,10.03
2019-05-02T23:36:32.782Z,8.58
2019-05-02T23:38:59.436Z,15.93
2019-05-02T23:41:26.328Z,10.55
2019-05-02T23:43:52.861Z,11.50
2019-05-02T23:46:20.049Z,8.95
2019-05-02T23:48:46.519Z,10.13
2019-05-02T23:51:12.875Z,11.22
2019-05-02T23:53:39.363Z,11.03
2019-05-02T23:56:05.843Z,12.40
2019-05-02T23:58:32.290Z,13.65
